sensor_id;sensor_type;location;lat;lon;timestamp;P1;durP1;ratioP1;P2;durP2;ratioP2
10471;SDS011;5283;48.876;8.962;2022-08-01T00:01:18;3.10;;;2.80;;
10471;SDS011;5283;48.876;8.962;2022-08-01T00:03:45;2.90;;;2.70;;
10471;SDS011;5283;48.876;8.962;2022-08-01T00:06:11;5.00;;;2.83;;
10471;SDS011;5283;48.876;8.962;2022-08-01T00:08:38;2.80;;;2.60;;
10471;SDS011;5283;48.876;8.962;2022-08-01T00:11:05;2.87;;;2.67;;
10471;SDS011;5283;48.876;8.962;2022-08-01T00:13:32;3.27;;;3.00;;
10471;SDS011;5283;48.876;8.962;2022-08-01T00:15:58;2.87;;;2.57;;
10471;SDS011;5283;48.876;8.962;2022-08-01T00:18:25;3.07;;;2.80;;
10471;SDS011;5283;48.876;8.962;2022-08-01T00:20:52;3.00;;;2.70;;
10471;SDS011;5283;48.876;8.962;2022-08-01T00:23:18;3.10;;;2.80;;
10471;SDS011;5283;48.876;8.962;2022-08-01T00:25:45;4.30;;;2.80;;
10471;SDS011;5283;48.876;8.962;2022-08-01T00:28:12;2.90;;;2.70;;
10471;SDS011;5283;48.876;8.962;2022-08-01T00:30:39;2.87;;;2.60;;
10471;SDS011;5283;48.876;8.962;2022-08-01T00:33:06;2.60;;;2.40;;
10471;SDS011;5283;48.876;8.962;2022-08-01T00:35:33;2.60;;;2.40;;
10471;SDS011;5283;48.876;8.962;2022-08-01T00:37:59;3.10;;;2.70;;
10471;SDS011;5283;48.876;8.962;2022-08-01T00:40:26;2.60;;;2.40;;
10471;SDS011;5283;48.876;8.962;2022-08-01T00:42:53;2.43;;;2.33;;
10471;SDS011;5283;48.876;8.962;2022-08-01T00:45:20;2.93;;;2.73;;
10471;SDS011;5283;48.876;8.962;2022-08-01T00:47:46;2.40;;;2.20;;
10471;SDS011;5283;48.876;8.962;2022-08-01T00:50:13;2.37;;;2.23;;
10471;SDS011;5283;48.876;8.962;2022-08-01T00:52:40;2.73;;;2.53;;
10471;SDS011;5283;48.876;8.962;2022-08-01T00:55:08;2.90;;;2.57;;
10471;SDS011;5283;48.876;8.962;2022-08-01T00:57:36;3.27;;;2.97;;
10471;SDS011;5283;48.876;8.962;2022-08-01T01:00:04;3.03;;;2.83;;
10471;SDS011;5283;48.876;8.962;2022-08-01T01:02:32;4.90;;;2.97;;
10471;SDS011;5283;48.876;8.962;2022-08-01T01:04:59;3.50;;;2.30;;
10471;SDS011;5283;48.876;8.962;2022-08-01T01:08:13;2.83;;;2.57;;
10471;SDS011;5283;48.876;8.962;2022-08-01T01:10:54;2.33;;;2.23;;
10471;SDS011;5283;48.876;8.962;2022-08-01T01:13:31;3.50;;;3.03;;
10471;SDS011;5283;48.876;8.962;2022-08-01T01:16:00;3.13;;;2.70;;
10471;SDS011;5283;48.876;8.962;2022-08-01T01:18:45;2.90;;;2.70;;
10471;SDS011;5283;48.876;8.962;2022-08-01T01:29:25;4.33;;;2.70;;
10471;SDS011;5283;48.876;8.962;2022-08-01T01:32:00;2.80;;;2.60;;
10471;SDS011;5283;48.876;8.962;2022-08-01T01:34:32;3.23;;;2.50;;
10471;SDS011;5283;48.876;8.962;2022-08-01T01:37:04;2.50;;;2.30;;
10471;SDS011;5283;48.876;8.962;2022-08-01T01:39:35;2.77;;;2.30;;
10471;SDS011;5283;48.876;8.962;2022-08-01T01:42:04;3.13;;;2.50;;
10471;SDS011;5283;48.876;8.962;2022-08-01T01:44:32;2.83;;;2.60;;
10471;SDS011;5283;48.876;8.962;2022-08-01T01:47:01;4.70;;;2.67;;
10471;SDS011;5283;48.876;8.962;2022-08-01T01:49:29;5.60;;;2.70;;
10471;SDS011;5283;48.876;8.962;2022-08-01T01:51:57;3.40;;;3.10;;
10471;SDS011;5283;48.876;8.962;2022-08-01T01:54:33;2.83;;;2.53;;
10471;SDS011;5283;48.876;8.962;2022-08-01T01:57:05;2.90;;;2.70;;
10471;SDS011;5283;48.876;8.962;2022-08-01T01:59:35;3.93;;;2.80;;
10471;SDS011;5283;48.876;8.962;2022-08-01T02:02:05;4.10;;;2.73;;
10471;SDS011;5283;48.876;8.962;2022-08-01T02:04:36;3.03;;;2.60;;
10471;SDS011;5283;48.876;8.962;2022-08-01T02:07:09;2.87;;;2.63;;
10471;SDS011;5283;48.876;8.962;2022-08-01T02:09:38;2.47;;;2.37;;
10471;SDS011;5283;48.876;8.962;2022-08-01T02:12:09;2.63;;;2.43;;
10471;SDS011;5283;48.876;8.962;2022-08-01T02:14:38;2.73;;;2.53;;
10471;SDS011;5283;48.876;8.962;2022-08-01T02:17:11;2.90;;;2.70;;
10471;SDS011;5283;48.876;8.962;2022-08-01T02:19:41;2.90;;;2.60;;
10471;SDS011;5283;48.876;8.962;2022-08-01T02:22:14;3.40;;;2.40;;
10471;SDS011;5283;48.876;8.962;2022-08-01T02:28:06;5.17;;;3.13;;
10471;SDS011;5283;48.876;8.962;2022-08-01T02:30:35;3.00;;;2.70;;
10471;SDS011;5283;48.876;8.962;2022-08-01T02:35:38;3.23;;;2.93;;
10471;SDS011;5283;48.876;8.962;2022-08-01T02:38:09;2.97;;;2.70;;
10471;SDS011;5283;48.876;8.962;2022-08-01T02:40:38;3.40;;;3.10;;
10471;SDS011;5283;48.876;8.962;2022-08-01T02:43:09;3.40;;;3.10;;
10471;SDS011;5283;48.876;8.962;2022-08-01T02:45:39;3.73;;;3.07;;
10471;SDS011;5283;48.876;8.962;2022-08-01T02:48:09;3.63;;;3.20;;
10471;SDS011;5283;48.876;8.962;2022-08-01T02:50:42;4.50;;;3.20;;
10471;SDS011;5283;48.876;8.962;2022-08-01T02:53:11;3.33;;;3.10;;
10471;SDS011;5283;48.876;8.962;2022-08-01T02:55:39;3.43;;;3.13;;
10471;SDS011;5283;48.876;8.962;2022-08-01T02:58:09;3.90;;;3.40;;
10471;SDS011;5283;48.876;8.962;2022-08-01T03:00:38;3.30;;;3.00;;
10471;SDS011;5283;48.876;8.962;2022-08-01T03:03:06;3.43;;;3.10;;
10471;SDS011;5283;48.876;8.962;2022-08-01T03:05:35;3.10;;;2.90;;
10471;SDS011;5283;48.876;8.962;2022-08-01T03:08:02;4.07;;;3.00;;
10471;SDS011;5283;48.876;8.962;2022-08-01T03:10:31;3.23;;;2.93;;
10471;SDS011;5283;48.876;8.962;2022-08-01T03:13:02;3.17;;;2.97;;
10471;SDS011;5283;48.876;8.962;2022-08-01T03:15:33;3.27;;;2.97;;
10471;SDS011;5283;48.876;8.962;2022-08-01T03:18:04;3.20;;;3.00;;
10471;SDS011;5283;48.876;8.962;2022-08-01T03:20:33;3.60;;;3.30;;
10471;SDS011;5283;48.876;8.962;2022-08-01T03:23:01;3.37;;;3.07;;
10471;SDS011;5283;48.876;8.962;2022-08-01T03:25:31;3.60;;;3.30;;
10471;SDS011;5283;48.876;8.962;2022-08-01T03:28:02;3.30;;;3.00;;
10471;SDS011;5283;48.876;8.962;2022-08-01T03:30:30;3.60;;;3.30;;
10471;SDS011;5283;48.876;8.962;2022-08-01T03:32:58;3.87;;;3.40;;
10471;SDS011;5283;48.876;8.962;2022-08-01T03:35:26;3.33;;;3.13;;
10471;SDS011;5283;48.876;8.962;2022-08-01T03:37:57;3.57;;;3.37;;
10471;SDS011;5283;48.876;8.962;2022-08-01T03:41:02;3.97;;;3.67;;
10471;SDS011;5283;48.876;8.962;2022-08-01T03:43:37;3.97;;;3.50;;
10471;SDS011;5283;48.876;8.962;2022-08-01T03:46:09;3.80;;;3.50;;
10471;SDS011;5283;48.876;8.962;2022-08-01T03:48:40;3.60;;;3.40;;
10471;SDS011;5283;48.876;8.962;2022-08-01T03:51:12;3.87;;;3.57;;
10471;SDS011;5283;48.876;8.962;2022-08-01T03:53:41;4.33;;;3.83;;
10471;SDS011;5283;48.876;8.962;2022-08-01T03:56:10;5.47;;;3.50;;
10471;SDS011;5283;48.876;8.962;2022-08-01T03:58:39;4.10;;;3.80;;
10471;SDS011;5283;48.876;8.962;2022-08-01T04:01:07;4.63;;;3.40;;
10471;SDS011;5283;48.876;8.962;2022-08-01T04:03:37;3.60;;;3.30;;
10471;SDS011;5283;48.876;8.962;2022-08-01T04:06:04;5.10;;;3.60;;
10471;SDS011;5283;48.876;8.962;2022-08-01T04:08:35;3.67;;;3.37;;
10471;SDS011;5283;48.876;8.962;2022-08-01T04:11:02;4.03;;;3.60;;
10471;SDS011;5283;48.876;8.962;2022-08-01T04:13:30;3.57;;;3.27;;
10471;SDS011;5283;48.876;8.962;2022-08-01T04:15:57;4.83;;;3.23;;
10471;SDS011;5283;48.876;8.962;2022-08-01T04:18:24;3.50;;;3.20;;
10471;SDS011;5283;48.876;8.962;2022-08-01T04:20:51;3.67;;;3.37;;
10471;SDS011;5283;48.876;8.962;2022-08-01T04:23:19;4.00;;;3.53;;
10471;SDS011;5283;48.876;8.962;2022-08-01T04:25:49;3.20;;;3.00;;
10471;SDS011;5283;48.876;8.962;2022-08-01T04:28:16;4.57;;;2.90;;
10471;SDS011;5283;48.876;8.962;2022-08-01T04:30:46;3.00;;;2.73;;
10471;SDS011;5283;48.876;8.962;2022-08-01T04:33:15;3.10;;;2.70;;
10471;SDS011;5283;48.876;8.962;2022-08-01T04:35:45;3.60;;;2.80;;
10471;SDS011;5283;48.876;8.962;2022-08-01T04:38:15;3.53;;;2.20;;
10471;SDS011;5283;48.876;8.962;2022-08-01T04:40:47;2.73;;;2.53;;
10471;SDS011;5283;48.876;8.962;2022-08-01T04:43:16;3.03;;;2.40;;
10471;SDS011;5283;48.876;8.962;2022-08-01T04:45:44;2.60;;;2.50;;
10471;SDS011;5283;48.876;8.962;2022-08-01T04:48:13;2.80;;;2.30;;
10471;SDS011;5283;48.876;8.962;2022-08-01T04:50:43;2.40;;;2.23;;
10471;SDS011;5283;48.876;8.962;2022-08-01T04:53:13;3.67;;;2.50;;
10471;SDS011;5283;48.876;8.962;2022-08-01T04:55:43;2.60;;;2.40;;
10471;SDS011;5283;48.876;8.962;2022-08-01T04:58:10;2.50;;;2.40;;
10471;SDS011;5283;48.876;8.962;2022-08-01T05:00:39;2.40;;;2.20;;
10471;SDS011;5283;48.876;8.962;2022-08-01T05:03:05;2.20;;;2.00;;
10471;SDS011;5283;48.876;8.962;2022-08-01T05:05:32;2.93;;;2.63;;
10471;SDS011;5283;48.876;8.962;2022-08-01T05:07:59;2.60;;;2.40;;
10471;SDS011;5283;48.876;8.962;2022-08-01T05:10:27;5.00;;;2.50;;
10471;SDS011;5283;48.876;8.962;2022-08-01T05:12:53;2.50;;;2.30;;
10471;SDS011;5283;48.876;8.962;2022-08-01T05:15:20;2.30;;;2.20;;
10471;SDS011;5283;48.876;8.962;2022-08-01T05:17:47;2.50;;;2.30;;
10471;SDS011;5283;48.876;8.962;2022-08-01T05:20:14;2.37;;;2.17;;
10471;SDS011;5283;48.876;8.962;2022-08-01T05:22:40;3.47;;;2.00;;
10471;SDS011;5283;48.876;8.962;2022-08-01T05:25:09;2.30;;;2.20;;
10471;SDS011;5283;48.876;8.962;2022-08-01T05:27:36;2.40;;;2.20;;
10471;SDS011;5283;48.876;8.962;2022-08-01T05:30:06;2.43;;;2.23;;
10471;SDS011;5283;48.876;8.962;2022-08-01T05:32:34;2.27;;;2.07;;
10471;SDS011;5283;48.876;8.962;2022-08-01T05:35:01;2.70;;;2.43;;
10471;SDS011;5283;48.876;8.962;2022-08-01T05:37:28;2.70;;;2.40;;
10471;SDS011;5283;48.876;8.962;2022-08-01T05:39:55;2.53;;;2.10;;
10471;SDS011;5283;48.876;8.962;2022-08-01T05:42:21;2.30;;;2.17;;
10471;SDS011;5283;48.876;8.962;2022-08-01T05:44:48;2.27;;;2.10;;
10471;SDS011;5283;48.876;8.962;2022-08-01T05:47:16;3.17;;;2.20;;
10471;SDS011;5283;48.876;8.962;2022-08-01T05:49:44;2.30;;;2.20;;
10471;SDS011;5283;48.876;8.962;2022-08-01T05:52:11;2.10;;;2.00;;
10471;SDS011;5283;48.876;8.962;2022-08-01T05:54:38;1.80;;;1.70;;
10471;SDS011;5283;48.876;8.962;2022-08-01T05:57:05;2.07;;;1.87;;
10471;SDS011;5283;48.876;8.962;2022-08-01T05:59:31;2.87;;;1.83;;
10471;SDS011;5283;48.876;8.962;2022-08-01T06:01:58;2.13;;;1.87;;
10471;SDS011;5283;48.876;8.962;2022-08-01T06:04:25;1.90;;;1.80;;
10471;SDS011;5283;48.876;8.962;2022-08-01T06:06:52;2.20;;;1.77;;
10471;SDS011;5283;48.876;8.962;2022-08-01T06:09:19;1.80;;;1.70;;
10471;SDS011;5283;48.876;8.962;2022-08-01T06:11:45;1.50;;;1.40;;
10471;SDS011;5283;48.876;8.962;2022-08-01T06:14:12;1.77;;;1.67;;
10471;SDS011;5283;48.876;8.962;2022-08-01T06:16:39;1.70;;;1.60;;
10471;SDS011;5283;48.876;8.962;2022-08-01T06:19:06;1.73;;;1.57;;
10471;SDS011;5283;48.876;8.962;2022-08-01T06:21:32;1.67;;;1.57;;
10471;SDS011;5283;48.876;8.962;2022-08-01T06:23:59;1.70;;;1.60;;
10471;SDS011;5283;48.876;8.962;2022-08-01T06:26:25;1.67;;;1.57;;
10471;SDS011;5283;48.876;8.962;2022-08-01T06:28:52;1.70;;;1.60;;
10471;SDS011;5283;48.876;8.962;2022-08-01T06:31:19;1.40;;;1.30;;
10471;SDS011;5283;48.876;8.962;2022-08-01T06:33:46;2.33;;;1.67;;
10471;SDS011;5283;48.876;8.962;2022-08-01T06:36:12;1.60;;;1.50;;
10471;SDS011;5283;48.876;8.962;2022-08-01T06:38:39;1.63;;;1.43;;
10471;SDS011;5283;48.876;8.962;2022-08-01T06:41:06;1.23;;;1.23;;
10471;SDS011;5283;48.876;8.962;2022-08-01T06:43:33;1.87;;;1.50;;
10471;SDS011;5283;48.876;8.962;2022-08-01T06:45:59;1.77;;;1.47;;
10471;SDS011;5283;48.876;8.962;2022-08-01T06:48:26;1.80;;;1.47;;
10471;SDS011;5283;48.876;8.962;2022-08-01T06:50:53;1.50;;;1.40;;
10471;SDS011;5283;48.876;8.962;2022-08-01T06:53:37;1.40;;;1.30;;
10471;SDS011;5283;48.876;8.962;2022-08-01T06:56:04;2.40;;;1.30;;
10471;SDS011;5283;48.876;8.962;2022-08-01T06:58:32;1.90;;;1.40;;
10471;SDS011;5283;48.876;8.962;2022-08-01T07:01:00;1.50;;;1.20;;
10471;SDS011;5283;48.876;8.962;2022-08-01T07:03:28;1.57;;;1.47;;
10471;SDS011;5283;48.876;8.962;2022-08-01T07:05:55;2.00;;;1.43;;
10471;SDS011;5283;48.876;8.962;2022-08-01T07:08:21;2.03;;;1.50;;
10471;SDS011;5283;48.876;8.962;2022-08-01T07:10:48;1.50;;;1.40;;
10471;SDS011;5283;48.876;8.962;2022-08-01T07:13:15;1.53;;;1.40;;
10471;SDS011;5283;48.876;8.962;2022-08-01T07:15:46;1.60;;;1.50;;
10471;SDS011;5283;48.876;8.962;2022-08-01T07:18:13;1.50;;;1.40;;
10471;SDS011;5283;48.876;8.962;2022-08-01T07:20:40;2.60;;;1.80;;
10471;SDS011;5283;48.876;8.962;2022-08-01T07:23:07;1.70;;;1.60;;
10471;SDS011;5283;48.876;8.962;2022-08-01T07:25:34;4.73;;;1.60;;
10471;SDS011;5283;48.876;8.962;2022-08-01T07:28:01;7.30;;;1.87;;
10471;SDS011;5283;48.876;8.962;2022-08-01T07:30:27;2.57;;;1.63;;
10471;SDS011;5283;48.876;8.962;2022-08-01T07:32:54;2.33;;;1.90;;
10471;SDS011;5283;48.876;8.962;2022-08-01T07:35:21;1.87;;;1.70;;
10471;SDS011;5283;48.876;8.962;2022-08-01T07:37:47;10.23;;;2.13;;
10471;SDS011;5283;48.876;8.962;2022-08-01T07:40:14;4.73;;;1.90;;
10471;SDS011;5283;48.876;8.962;2022-08-01T07:42:43;2.23;;;1.80;;
10471;SDS011;5283;48.876;8.962;2022-08-01T07:45:11;1.83;;;1.73;;
10471;SDS011;5283;48.876;8.962;2022-08-01T07:47:39;2.63;;;1.80;;
10471;SDS011;5283;48.876;8.962;2022-08-01T07:50:06;2.00;;;1.50;;
10471;SDS011;5283;48.876;8.962;2022-08-01T07:52:33;1.73;;;1.60;;
10471;SDS011;5283;48.876;8.962;2022-08-01T07:55:00;1.70;;;1.60;;
10471;SDS011;5283;48.876;8.962;2022-08-01T07:57:26;2.73;;;1.73;;
10471;SDS011;5283;48.876;8.962;2022-08-01T07:59:53;1.70;;;1.60;;
10471;SDS011;5283;48.876;8.962;2022-08-01T08:02:20;2.00;;;1.70;;
10471;SDS011;5283;48.876;8.962;2022-08-01T08:04:47;4.00;;;1.83;;
10471;SDS011;5283;48.876;8.962;2022-08-01T08:07:14;4.13;;;2.17;;
10471;SDS011;5283;48.876;8.962;2022-08-01T08:09:41;2.90;;;1.70;;
10471;SDS011;5283;48.876;8.962;2022-08-01T08:12:09;2.45;;;1.88;;
10471;SDS011;5283;48.876;8.962;2022-08-01T08:14:36;2.45;;;1.50;;
10471;SDS011;5283;48.876;8.962;2022-08-01T08:17:03;1.83;;;1.73;;
10471;SDS011;5283;48.876;8.962;2022-08-01T08:19:31;1.80;;;1.70;;
10471;SDS011;5283;48.876;8.962;2022-08-01T08:21:59;1.87;;;1.70;;
10471;SDS011;5283;48.876;8.962;2022-08-01T08:24:26;3.37;;;2.03;;
10471;SDS011;5283;48.876;8.962;2022-08-01T08:26:54;2.43;;;1.90;;
10471;SDS011;5283;48.876;8.962;2022-08-01T08:29:25;2.20;;;2.10;;
10471;SDS011;5283;48.876;8.962;2022-08-01T08:31:55;4.07;;;2.07;;
10471;SDS011;5283;48.876;8.962;2022-08-01T08:34:24;2.60;;;2.40;;
10471;SDS011;5283;48.876;8.962;2022-08-01T08:36:52;3.07;;;2.60;;
10471;SDS011;5283;48.876;8.962;2022-08-01T08:39:20;3.17;;;2.87;;
10471;SDS011;5283;48.876;8.962;2022-08-01T08:41:48;4.30;;;2.93;;
10471;SDS011;5283;48.876;8.962;2022-08-01T08:44:15;4.20;;;2.80;;
10471;SDS011;5283;48.876;8.962;2022-08-01T08:46:44;2.97;;;2.67;;
10471;SDS011;5283;48.876;8.962;2022-08-01T08:49:15;3.23;;;3.00;;
10471;SDS011;5283;48.876;8.962;2022-08-01T08:51:44;3.27;;;2.97;;
10471;SDS011;5283;48.876;8.962;2022-08-01T08:54:14;3.47;;;3.17;;
10471;SDS011;5283;48.876;8.962;2022-08-01T08:56:43;3.87;;;3.10;;
10471;SDS011;5283;48.876;8.962;2022-08-01T08:59:12;3.97;;;3.10;;
10471;SDS011;5283;48.876;8.962;2022-08-01T09:01:40;5.20;;;4.00;;
10471;SDS011;5283;48.876;8.962;2022-08-01T09:04:07;3.70;;;3.40;;
10471;SDS011;5283;48.876;8.962;2022-08-01T09:06:35;3.23;;;2.93;;
10471;SDS011;5283;48.876;8.962;2022-08-01T09:09:02;3.83;;;3.47;;
10471;SDS011;5283;48.876;8.962;2022-08-01T09:11:30;3.40;;;3.10;;
10471;SDS011;5283;48.876;8.962;2022-08-01T09:16:33;3.50;;;3.20;;
10471;SDS011;5283;48.876;8.962;2022-08-01T09:19:08;4.73;;;3.33;;
10471;SDS011;5283;48.876;8.962;2022-08-01T09:21:54;3.10;;;2.90;;
10471;SDS011;5283;48.876;8.962;2022-08-01T09:24:26;2.67;;;2.50;;
10471;SDS011;5283;48.876;8.962;2022-08-01T09:26:54;2.87;;;2.53;;
10471;SDS011;5283;48.876;8.962;2022-08-01T09:29:23;4.90;;;2.50;;
10471;SDS011;5283;48.876;8.962;2022-08-01T09:31:52;3.13;;;2.60;;
10471;SDS011;5283;48.876;8.962;2022-08-01T09:34:24;3.83;;;2.53;;
10471;SDS011;5283;48.876;8.962;2022-08-01T09:36:53;3.07;;;2.07;;
10471;SDS011;5283;48.876;8.962;2022-08-01T09:39:24;1.90;;;1.70;;
10471;SDS011;5283;48.876;8.962;2022-08-01T09:41:56;2.73;;;2.33;;
10471;SDS011;5283;48.876;8.962;2022-08-01T09:44:37;2.60;;;2.40;;
10471;SDS011;5283;48.876;8.962;2022-08-01T09:47:05;3.23;;;2.07;;
10471;SDS011;5283;48.876;8.962;2022-08-01T09:49:34;1.87;;;1.63;;
10471;SDS011;5283;48.876;8.962;2022-08-01T09:52:18;2.63;;;2.27;;
10471;SDS011;5283;48.876;8.962;2022-08-01T09:55:05;3.37;;;1.97;;
10471;SDS011;5283;48.876;8.962;2022-08-01T09:57:33;3.33;;;1.80;;
10471;SDS011;5283;48.876;8.962;2022-08-01T10:00:00;3.43;;;1.90;;
10471;SDS011;5283;48.876;8.962;2022-08-01T10:05:03;3.03;;;1.90;;
10471;SDS011;5283;48.876;8.962;2022-08-01T10:07:35;4.50;;;2.20;;
10471;SDS011;5283;48.876;8.962;2022-08-01T10:10:20;2.60;;;2.40;;
10471;SDS011;5283;48.876;8.962;2022-08-01T10:12:47;2.10;;;1.90;;
10471;SDS011;5283;48.876;8.962;2022-08-01T10:15:16;1.97;;;1.87;;
10471;SDS011;5283;48.876;8.962;2022-08-01T10:17:49;2.33;;;2.13;;
10471;SDS011;5283;48.876;8.962;2022-08-01T10:20:30;2.10;;;2.00;;
10471;SDS011;5283;48.876;8.962;2022-08-01T10:22:59;2.07;;;1.90;;
10471;SDS011;5283;48.876;8.962;2022-08-01T10:25:28;2.77;;;2.50;;
10471;SDS011;5283;48.876;8.962;2022-08-01T10:28:02;3.07;;;2.70;;
10471;SDS011;5283;48.876;8.962;2022-08-01T10:30:47;2.30;;;2.07;;
10471;SDS011;5283;48.876;8.962;2022-08-01T10:33:14;3.17;;;2.40;;
10471;SDS011;5283;48.876;8.962;2022-08-01T10:35:42;2.73;;;2.53;;
10471;SDS011;5283;48.876;8.962;2022-08-01T10:38:13;2.60;;;2.40;;
10471;SDS011;5283;48.876;8.962;2022-08-01T10:40:44;2.27;;;2.13;;
10471;SDS011;5283;48.876;8.962;2022-08-01T10:43:11;2.60;;;1.90;;
10471;SDS011;5283;48.876;8.962;2022-08-01T10:45:39;2.70;;;2.50;;
10471;SDS011;5283;48.876;8.962;2022-08-01T10:48:12;2.50;;;2.30;;
10471;SDS011;5283;48.876;8.962;2022-08-01T10:50:53;2.33;;;2.20;;
10471;SDS011;5283;48.876;8.962;2022-08-01T10:53:24;3.37;;;2.50;;
10471;SDS011;5283;48.876;8.962;2022-08-01T11:03:44;4.10;;;2.60;;
10471;SDS011;5283;48.876;8.962;2022-08-01T11:09:23;2.53;;;2.33;;
10471;SDS011;5283;48.876;8.962;2022-08-01T11:11:57;2.53;;;2.30;;
10471;SDS011;5283;48.876;8.962;2022-08-01T11:14:31;3.50;;;2.60;;
10471;SDS011;5283;48.876;8.962;2022-08-01T11:25:23;3.93;;;2.20;;
10471;SDS011;5283;48.876;8.962;2022-08-01T11:28:17;2.27;;;2.07;;
10471;SDS011;5283;48.876;8.962;2022-08-01T11:38:43;2.50;;;2.30;;
10471;SDS011;5283;48.876;8.962;2022-08-01T11:41:39;2.50;;;2.30;;
10471;SDS011;5283;48.876;8.962;2022-08-01T11:49:27;3.03;;;2.53;;
10471;SDS011;5283;48.876;8.962;2022-08-01T11:54:39;4.57;;;2.67;;
10471;SDS011;5283;48.876;8.962;2022-08-01T11:57:13;2.70;;;2.50;;
10471;SDS011;5283;48.876;8.962;2022-08-01T11:59:49;4.13;;;2.33;;
10471;SDS011;5283;48.876;8.962;2022-08-01T12:02:22;2.87;;;2.60;;
10471;SDS011;5283;48.876;8.962;2022-08-01T12:04:51;2.40;;;2.20;;
10471;SDS011;5283;48.876;8.962;2022-08-01T12:07:23;2.67;;;2.30;;
10471;SDS011;5283;48.876;8.962;2022-08-01T12:10:03;2.17;;;1.97;;
10471;SDS011;5283;48.876;8.962;2022-08-01T12:12:59;2.87;;;1.97;;
10471;SDS011;5283;48.876;8.962;2022-08-01T12:15:30;1.93;;;1.83;;
10471;SDS011;5283;48.876;8.962;2022-08-01T12:18:03;2.07;;;1.97;;
10471;SDS011;5283;48.876;8.962;2022-08-01T12:20:33;2.90;;;1.93;;
10471;SDS011;5283;48.876;8.962;2022-08-01T12:23:06;1.90;;;1.80;;
10471;SDS011;5283;48.876;8.962;2022-08-01T12:25:34;2.20;;;2.10;;
10471;SDS011;5283;48.876;8.962;2022-08-01T12:28:03;2.80;;;2.40;;
10471;SDS011;5283;48.876;8.962;2022-08-01T12:30:32;3.10;;;2.40;;
10471;SDS011;5283;48.876;8.962;2022-08-01T12:33:04;2.70;;;2.17;;
10471;SDS011;5283;48.876;8.962;2022-08-01T12:35:33;2.63;;;2.07;;
10471;SDS011;5283;48.876;8.962;2022-08-01T12:38:03;2.23;;;2.13;;
10471;SDS011;5283;48.876;8.962;2022-08-01T12:40:41;2.47;;;2.27;;
10471;SDS011;5283;48.876;8.962;2022-08-01T12:43:14;2.27;;;2.17;;
10471;SDS011;5283;48.876;8.962;2022-08-01T12:45:43;4.40;;;2.07;;
10471;SDS011;5283;48.876;8.962;2022-08-01T12:48:12;2.47;;;2.27;;
10471;SDS011;5283;48.876;8.962;2022-08-01T12:50:41;3.17;;;2.33;;
10471;SDS011;5283;48.876;8.962;2022-08-01T12:53:09;2.40;;;2.20;;
10471;SDS011;5283;48.876;8.962;2022-08-01T12:55:44;4.87;;;2.23;;
10471;SDS011;5283;48.876;8.962;2022-08-01T12:58:14;2.20;;;2.00;;
10471;SDS011;5283;48.876;8.962;2022-08-01T13:00:43;2.00;;;1.87;;
10471;SDS011;5283;48.876;8.962;2022-08-01T13:03:13;2.13;;;2.00;;
10471;SDS011;5283;48.876;8.962;2022-08-01T13:08:21;2.20;;;2.10;;
10471;SDS011;5283;48.876;8.962;2022-08-01T13:11:05;2.03;;;1.93;;
10471;SDS011;5283;48.876;8.962;2022-08-01T13:13:40;2.17;;;2.07;;
10471;SDS011;5283;48.876;8.962;2022-08-01T13:16:09;4.87;;;2.30;;
10471;SDS011;5283;48.876;8.962;2022-08-01T13:18:37;2.00;;;1.90;;
10471;SDS011;5283;48.876;8.962;2022-08-01T13:23:37;2.07;;;1.97;;
10471;SDS011;5283;48.876;8.962;2022-08-01T13:26:05;3.67;;;2.07;;
10471;SDS011;5283;48.876;8.962;2022-08-01T13:28:32;2.50;;;2.30;;
10471;SDS011;5283;48.876;8.962;2022-08-01T13:31:08;3.07;;;2.07;;
10471;SDS011;5283;48.876;8.962;2022-08-01T13:33:40;2.27;;;1.97;;
10471;SDS011;5283;48.876;8.962;2022-08-01T13:36:11;2.30;;;2.20;;
10471;SDS011;5283;48.876;8.962;2022-08-01T13:38:39;3.37;;;2.17;;
10471;SDS011;5283;48.876;8.962;2022-08-01T13:41:26;2.33;;;2.13;;
10471;SDS011;5283;48.876;8.962;2022-08-01T13:43:53;3.27;;;2.80;;
10471;SDS011;5283;48.876;8.962;2022-08-01T13:46:21;2.70;;;2.10;;
10471;SDS011;5283;48.876;8.962;2022-08-01T13:48:47;4.53;;;4.13;;
10471;SDS011;5283;48.876;8.962;2022-08-01T13:51:14;3.23;;;2.93;;
10471;SDS011;5283;48.876;8.962;2022-08-01T13:53:46;3.80;;;2.27;;
10471;SDS011;5283;48.876;8.962;2022-08-01T13:56:13;2.70;;;2.33;;
10471;SDS011;5283;48.876;8.962;2022-08-01T13:58:42;2.60;;;1.87;;
10471;SDS011;5283;48.876;8.962;2022-08-01T14:01:09;4.43;;;2.10;;
10471;SDS011;5283;48.876;8.962;2022-08-01T14:03:36;2.67;;;2.13;;
10471;SDS011;5283;48.876;8.962;2022-08-01T14:06:03;2.03;;;1.83;;
10471;SDS011;5283;48.876;8.962;2022-08-01T14:08:30;2.53;;;2.17;;
10471;SDS011;5283;48.876;8.962;2022-08-01T14:10:57;3.37;;;2.33;;
10471;SDS011;5283;48.876;8.962;2022-08-01T14:13:25;2.33;;;2.13;;
10471;SDS011;5283;48.876;8.962;2022-08-01T14:15:53;2.03;;;1.90;;
10471;SDS011;5283;48.876;8.962;2022-08-01T14:18:19;2.70;;;2.13;;
10471;SDS011;5283;48.876;8.962;2022-08-01T14:20:47;2.53;;;2.00;;
10471;SDS011;5283;48.876;8.962;2022-08-01T14:23:13;1.97;;;1.87;;
10471;SDS011;5283;48.876;8.962;2022-08-01T14:25:40;2.70;;;2.10;;
10471;SDS011;5283;48.876;8.962;2022-08-01T14:28:07;5.57;;;2.07;;
10471;SDS011;5283;48.876;8.962;2022-08-01T14:30:34;1.80;;;1.70;;
10471;SDS011;5283;48.876;8.962;2022-08-01T14:33:01;2.43;;;1.50;;
10471;SDS011;5283;48.876;8.962;2022-08-01T14:35:28;2.43;;;2.00;;
10471;SDS011;5283;48.876;8.962;2022-08-01T14:37:54;2.87;;;2.00;;
10471;SDS011;5283;48.876;8.962;2022-08-01T14:40:21;2.30;;;1.90;;
10471;SDS011;5283;48.876;8.962;2022-08-01T14:42:48;2.00;;;1.80;;
10471;SDS011;5283;48.876;8.962;2022-08-01T14:45:15;1.83;;;1.60;;
10471;SDS011;5283;48.876;8.962;2022-08-01T14:47:42;3.43;;;1.93;;
10471;SDS011;5283;48.876;8.962;2022-08-01T14:50:11;2.60;;;1.80;;
10471;SDS011;5283;48.876;8.962;2022-08-01T14:52:39;2.10;;;2.00;;
10471;SDS011;5283;48.876;8.962;2022-08-01T14:55:07;2.37;;;2.10;;
10471;SDS011;5283;48.876;8.962;2022-08-01T14:57:35;3.17;;;1.83;;
10471;SDS011;5283;48.876;8.962;2022-08-01T15:00:04;2.00;;;1.90;;
10471;SDS011;5283;48.876;8.962;2022-08-01T15:02:33;2.00;;;1.90;;
10471;SDS011;5283;48.876;8.962;2022-08-01T15:05:00;2.53;;;1.90;;
10471;SDS011;5283;48.876;8.962;2022-08-01T15:07:26;4.03;;;1.73;;
10471;SDS011;5283;48.876;8.962;2022-08-01T15:09:53;3.40;;;2.20;;
10471;SDS011;5283;48.876;8.962;2022-08-01T15:12:20;1.70;;;1.60;;
10471;SDS011;5283;48.876;8.962;2022-08-01T15:14:46;3.20;;;2.10;;
10471;SDS011;5283;48.876;8.962;2022-08-01T15:17:14;2.80;;;1.70;;
10471;SDS011;5283;48.876;8.962;2022-08-01T15:19:42;1.90;;;1.80;;
10471;SDS011;5283;48.876;8.962;2022-08-01T15:22:09;2.27;;;2.07;;
10471;SDS011;5283;48.876;8.962;2022-08-01T15:24:36;2.10;;;1.90;;
10471;SDS011;5283;48.876;8.962;2022-08-01T15:27:03;1.97;;;1.80;;
10471;SDS011;5283;48.876;8.962;2022-08-01T15:29:31;3.30;;;1.50;;
10471;SDS011;5283;48.876;8.962;2022-08-01T15:31:59;2.47;;;1.50;;
10471;SDS011;5283;48.876;8.962;2022-08-01T15:34:27;3.60;;;1.50;;
10471;SDS011;5283;48.876;8.962;2022-08-01T15:36:53;2.33;;;1.50;;
10471;SDS011;5283;48.876;8.962;2022-08-01T15:39:20;2.23;;;1.73;;
10471;SDS011;5283;48.876;8.962;2022-08-01T15:41:47;2.53;;;1.40;;
10471;SDS011;5283;48.876;8.962;2022-08-01T15:44:14;2.00;;;1.70;;
10471;SDS011;5283;48.876;8.962;2022-08-01T15:46:41;2.33;;;1.60;;
10471;SDS011;5283;48.876;8.962;2022-08-01T15:49:07;1.87;;;1.50;;
10471;SDS011;5283;48.876;8.962;2022-08-01T15:51:34;1.77;;;1.67;;
10471;SDS011;5283;48.876;8.962;2022-08-01T15:54:01;1.50;;;1.40;;
10471;SDS011;5283;48.876;8.962;2022-08-01T15:56:29;2.50;;;1.70;;
10471;SDS011;5283;48.876;8.962;2022-08-01T15:58:56;1.27;;;1.17;;
10471;SDS011;5283;48.876;8.962;2022-08-01T16:01:23;2.30;;;1.80;;
10471;SDS011;5283;48.876;8.962;2022-08-01T16:03:52;1.37;;;1.27;;
10471;SDS011;5283;48.876;8.962;2022-08-01T16:06:19;3.07;;;1.47;;
10471;SDS011;5283;48.876;8.962;2022-08-01T16:08:46;1.63;;;1.53;;
10471;SDS011;5283;48.876;8.962;2022-08-01T16:11:13;1.80;;;1.47;;
10471;SDS011;5283;48.876;8.962;2022-08-01T16:13:40;1.23;;;1.20;;